createdAt,value
2022-08-28T00:00:17.961Z,18.61
2022-08-28T00:01:17.896Z,18.61
2022-08-28T00:02:17.867Z,18.58
2022-08-28T00:03:17.882Z,18.59
2022-08-28T00:04:17.916Z,18.58
2022-08-28T00:05:17.817Z,18.58
2022-08-28T00:06:17.828Z,18.58
2022-08-28T00:07:18.828Z,18.57
2022-08-28T00:08:17.818Z,18.57
2022-08-28T00:09:17.828Z,18.52
2022-08-28T00:10:17.749Z,18.52
2022-08-28T00:11:17.759Z,18.50
2022-08-28T00:12:17.710Z,18.50
2022-08-28T00:13:17.750Z,18.49
2022-08-28T00:14:18.772Z,18.47
2022-08-28T00:15:17.681Z,18.44
2022-08-28T00:16:17.727Z,18.42
2022-08-28T00:17:17.771Z,18.42
2022-08-28T00:18:17.679Z,18.42
2022-08-28T00:19:38.998Z,18.39
2022-08-28T00:20:17.691Z,18.39
2022-08-28T00:21:17.742Z,18.40
2022-08-28T00:22:17.703Z,18.39
2022-08-28T00:23:17.616Z,18.37
2022-08-28T00:25:27.792Z,18.39
2022-08-28T00:26:27.891Z,18.37
2022-08-28T00:27:27.773Z,18.39
2022-08-28T00:28:27.773Z,18.40
2022-08-28T00:29:27.792Z,18.37
2022-08-28T00:30:29.801Z,18.36
2022-08-28T00:31:27.914Z,18.39
2022-08-28T00:32:27.804Z,18.37
2022-08-28T00:33:27.719Z,18.36
2022-08-28T00:34:32.033Z,18.37
2022-08-28T00:35:28.756Z,18.37
2022-08-28T00:36:27.767Z,18.37
2022-08-28T00:37:27.745Z,18.36
2022-08-28T00:38:27.648Z,18.36
2022-08-28T00:39:27.659Z,18.36
2022-08-28T00:40:28.513Z,18.36
2022-08-28T00:41:27.615Z,18.33
2022-08-28T00:42:27.566Z,18.31
2022-08-28T00:43:27.556Z,18.31
2022-08-28T00:44:27.598Z,18.29
2022-08-28T00:45:27.587Z,18.29
2022-08-28T00:46:27.579Z,18.29
2022-08-28T00:47:28.529Z,18.28
2022-08-28T00:48:27.508Z,18.28
2022-08-28T00:49:27.506Z,18.27
2022-08-28T00:50:27.529Z,18.27
2022-08-28T00:51:27.468Z,18.27
2022-08-28T00:52:27.538Z,18.25
2022-08-28T00:53:32.654Z,18.27
2022-08-28T00:54:28.418Z,18.25
2022-08-28T00:55:27.451Z,18.25
2022-08-28T00:56:27.409Z,18.24
2022-08-28T00:57:27.479Z,18.24
2022-08-28T00:58:27.482Z,18.25
2022-08-28T00:59:28.402Z,18.27
2022-08-28T01:00:27.354Z,18.27
2022-08-28T01:01:27.472Z,18.28
2022-08-28T01:02:27.527Z,18.28
2022-08-28T01:03:27.428Z,18.28
2022-08-28T01:04:27.314Z,18.29
2022-08-28T01:05:27.311Z,18.29
2022-08-28T01:06:27.362Z,18.29
2022-08-28T01:07:27.332Z,18.29
2022-08-28T01:08:30.363Z,18.27
2022-08-28T01:09:27.240Z,18.27
2022-08-28T01:10:50.232Z,18.27
2022-08-28T01:11:27.252Z,18.27
2022-08-28T01:12:27.264Z,18.28
2022-08-28T01:13:27.288Z,18.25
2022-08-28T01:14:27.184Z,18.24
2022-08-28T01:15:27.155Z,18.22
2022-08-28T01:16:27.144Z,18.21
2022-08-28T01:17:28.236Z,18.21
2022-08-28T01:18:27.227Z,18.19
2022-08-28T01:19:27.115Z,18.17
2022-08-28T01:20:27.106Z,18.18
2022-08-28T01:21:27.095Z,18.18
2022-08-28T01:22:27.057Z,18.17
2022-08-28T01:23:27.137Z,18.17
2022-08-28T01:24:34.554Z,18.15
2022-08-28T01:25:27.020Z,18.18
2022-08-28T01:26:28.019Z,18.17
2022-08-28T01:27:26.993Z,18.15
2022-08-28T01:28:26.985Z,18.13
2022-08-28T01:29:26.970Z,18.13
2022-08-28T01:30:26.953Z,18.13
2022-08-28T01:31:28.018Z,18.12
2022-08-28T01:32:26.942Z,18.10
2022-08-28T01:33:27.948Z,18.10
2022-08-28T01:34:26.902Z,18.09
2022-08-28T01:35:26.892Z,18.09
2022-08-28T01:36:26.892Z,18.10
2022-08-28T01:37:26.864Z,18.09
2022-08-28T01:38:27.114Z,18.09
2022-08-28T01:39:26.840Z,18.10
2022-08-28T01:40:26.857Z,18.10
2022-08-28T01:41:27.825Z,18.09
2022-08-28T01:42:26.818Z,18.09
2022-08-28T01:43:26.794Z,18.09
2022-08-28T01:44:26.784Z,18.07
2022-08-28T01:45:26.755Z,18.09
2022-08-28T01:46:26.808Z,18.07
2022-08-28T01:47:26.756Z,18.09
2022-08-28T01:48:26.726Z,18.06
2022-08-28T01:49:26.715Z,18.06
2022-08-28T01:50:27.696Z,18.04
2022-08-28T01:51:26.690Z,18.04
2022-08-28T01:52:27.689Z,18.04
2022-08-28T01:53:30.736Z,18.03
2022-08-28T01:54:27.649Z,18.04
2022-08-28T01:55:47.648Z,18.04
2022-08-28T01:56:26.605Z,18.04
2022-08-28T01:57:26.606Z,18.03
2022-08-28T01:58:26.596Z,18.03
2022-08-28T01:59:26.598Z,18.02
2022-08-28T02:00:26.575Z,18.03
2022-08-28T02:01:26.597Z,18.03
2022-08-28T02:02:27.538Z,18.00
2022-08-28T02:03:26.551Z,18.02
2022-08-28T02:04:31.864Z,18.00
2022-08-28T02:05:27.508Z,18.00
2022-08-28T02:06:26.508Z,18.00
2022-08-28T02:07:26.470Z,17.99
2022-08-28T02:08:26.471Z,17.99
2022-08-28T02:09:26.463Z,17.95
2022-08-28T02:10:26.449Z,17.95
2022-08-28T02:11:26.440Z,17.97
2022-08-28T02:12:28.451Z,17.97
2022-08-28T02:13:26.407Z,17.95
2022-08-28T02:14:26.401Z,17.91
2022-08-28T02:15:26.437Z,17.94
2022-08-28T02:16:26.380Z,17.94
2022-08-28T02:17:26.352Z,17.92
2022-08-28T02:18:26.338Z,17.92
2022-08-28T02:19:26.322Z,17.92
2022-08-28T02:20:26.301Z,17.92
2022-08-28T02:21:26.313Z,17.92
2022-08-28T02:22:26.281Z,17.94
2022-08-28T02:23:26.273Z,17.95
2022-08-28T02:24:26.263Z,17.95
2022-08-28T02:25:26.244Z,17.94
2022-08-28T02:26:26.233Z,17.95
2022-08-28T02:27:27.223Z,17.95
2022-08-28T02:28:26.200Z,17.94
2022-08-28T02:29:26.194Z,17.94
2022-08-28T02:30:26.170Z,17.95
2022-08-28T02:31:26.233Z,17.94
2022-08-28T02:32:26.147Z,17.92
2022-08-28T02:33:26.145Z,17.92
2022-08-28T02:34:27.128Z,17.94
2022-08-28T02:35:27.115Z,17.94
2022-08-28T02:36:26.105Z,17.95
2022-08-28T02:37:26.090Z,17.95
2022-08-28T02:38:26.075Z,17.95
2022-08-28T02:39:26.055Z,17.99
2022-08-28T02:40:26.112Z,18.00
2022-08-28T02:41:27.060Z,18.00
2022-08-28T02:42:26.017Z,17.97
2022-08-28T02:43:26.034Z,17.99
2022-08-28T02:44:26.007Z,18.00
2022-08-28T02:45:25.998Z,18.00
2022-08-28T02:46:26.023Z,17.99
2022-08-28T02:47:25.979Z,17.99
2022-08-28T02:48:25.937Z,18.00
2022-08-28T02:49:25.938Z,18.02
2022-08-28T02:50:27.919Z,18.00
2022-08-28T02:51:25.922Z,17.99
2022-08-28T02:52:25.900Z,17.99
2022-08-28T02:53:25.879Z,17.97
2022-08-28T02:54:25.875Z,17.97
2022-08-28T02:55:25.865Z,17.94
2022-08-28T02:56:25.870Z,17.91
2022-08-28T02:57:25.851Z,17.92
2022-08-28T02:58:25.823Z,17.94
2022-08-28T02:59:25.820Z,17.92
2022-08-28T03:00:25.790Z,17.91
2022-08-28T03:01:25.851Z,17.91
2022-08-28T03:02:25.826Z,17.89
2022-08-28T03:03:25.760Z,17.89
2022-08-28T03:04:25.737Z,17.89
2022-08-28T03:05:25.722Z,17.88
2022-08-28T03:06:25.722Z,17.88
2022-08-28T03:07:25.713Z,17.85
2022-08-28T03:08:27.290Z,17.87
2022-08-28T03:09:25.671Z,17.88
2022-08-28T03:10:25.664Z,17.88
2022-08-28T03:11:25.665Z,17.88
2022-08-28T03:12:25.643Z,17.88
2022-08-28T03:13:27.288Z,17.88
2022-08-28T03:14:25.612Z,17.88
2022-08-28T03:15:25.594Z,17.89
2022-08-28T03:16:25.720Z,17.88
2022-08-28T03:17:25.574Z,17.88
2022-08-28T03:18:25.657Z,17.85
2022-08-28T03:19:25.545Z,17.88
2022-08-28T03:20:25.647Z,17.89
2022-08-28T03:21:25.604Z,17.88
2022-08-28T03:22:25.509Z,17.89
2022-08-28T03:23:25.576Z,17.88
2022-08-28T03:24:25.577Z,17.88
2022-08-28T03:25:26.510Z,17.87
2022-08-28T03:26:25.487Z,17.85
2022-08-28T03:27:25.538Z,17.82
2022-08-28T03:28:25.540Z,17.79
2022-08-28T03:29:25.507Z,17.78
2022-08-28T03:30:25.625Z,17.79
2022-08-28T03:31:25.419Z,17.81
2022-08-28T03:32:26.438Z,17.79
2022-08-28T03:33:25.488Z,17.78
2022-08-28T03:34:26.369Z,17.78
2022-08-28T03:35:25.453Z,17.76
2022-08-28T03:36:25.349Z,17.78
2022-08-28T03:37:25.359Z,17.79
2022-08-28T03:38:25.917Z,17.81
2022-08-28T03:39:25.370Z,17.79
2022-08-28T03:40:25.535Z,17.79
2022-08-28T03:41:25.290Z,17.81
2022-08-28T03:42:25.300Z,17.79
2022-08-28T03:43:25.352Z,17.79
2022-08-28T03:44:25.311Z,17.79
2022-08-28T03:45:25.210Z,17.79
2022-08-28T03:46:25.263Z,17.81
2022-08-28T03:47:25.223Z,17.82
2022-08-28T03:48:25.273Z,17.81
2022-08-28T03:49:25.243Z,17.79
2022-08-28T04:03:52.687Z,17.74
2022-08-28T04:04:52.795Z,17.73
2022-08-28T04:05:52.654Z,17.73
2022-08-28T04:06:52.710Z,17.74
2022-08-28T04:07:52.725Z,17.74
2022-08-28T04:08:54.687Z,17.73
2022-08-28T04:09:54.667Z,17.74
2022-08-28T04:10:52.584Z,17.74
2022-08-28T04:11:52.616Z,17.76
2022-08-28T04:12:52.667Z,17.78
2022-08-28T04:13:52.648Z,17.78
2022-08-28T04:14:53.577Z,17.79
2022-08-28T04:15:52.534Z,17.81
2022-08-28T04:16:52.633Z,17.81
2022-08-28T04:17:52.559Z,17.79
2022-08-28T04:18:52.580Z,17.79
2022-08-28T04:19:52.579Z,17.81
2022-08-28T04:20:52.456Z,17.81
2022-08-28T04:21:52.469Z,17.81
2022-08-28T04:22:55.184Z,17.78
2022-08-28T04:23:52.420Z,17.78
2022-08-28T04:24:52.410Z,17.78
2022-08-28T04:25:52.394Z,17.78
2022-08-28T04:26:52.380Z,17.78
2022-08-28T04:27:52.399Z,17.78
2022-08-28T04:28:52.770Z,17.78
2022-08-28T04:29:52.450Z,17.76
2022-08-28T04:30:52.341Z,17.81
2022-08-28T04:33:02.563Z,17.81
2022-08-28T04:34:02.624Z,17.79
2022-08-28T04:35:02.615Z,17.79
2022-08-28T04:36:02.523Z,17.81
2022-08-28T04:37:02.525Z,17.78
2022-08-28T04:38:05.505Z,17.79
2022-08-28T04:39:02.547Z,17.79
2022-08-28T04:40:02.621Z,17.81
2022-08-28T04:41:02.566Z,17.81
2022-08-28T04:42:02.445Z,17.84
2022-08-28T04:43:02.496Z,17.85
2022-08-28T04:44:02.488Z,17.85
2022-08-28T04:45:02.489Z,17.84
2022-08-28T04:46:02.523Z,17.84
2022-08-28T04:47:02.373Z,17.82
2022-08-28T04:48:03.312Z,17.84
2022-08-28T04:49:03.438Z,17.84
2022-08-28T04:50:02.408Z,17.84
2022-08-28T04:51:02.299Z,17.82
2022-08-28T04:52:02.350Z,17.85
2022-08-28T04:53:02.299Z,17.84
2022-08-28T04:54:02.269Z,17.81
2022-08-28T04:55:03.358Z,17.78
2022-08-28T04:56:02.350Z,17.81
2022-08-28T04:57:02.233Z,17.82
2022-08-28T04:58:02.309Z,17.81
2022-08-28T04:59:02.280Z,17.81
2022-08-28T05:00:02.202Z,17.82
2022-08-28T05:01:02.193Z,17.84
2022-08-28T05:02:02.281Z,17.84
2022-08-28T05:03:02.242Z,17.84
2022-08-28T05:04:02.163Z,17.87
2022-08-28T05:05:02.191Z,17.87
2022-08-28T05:06:02.370Z,17.89
2022-08-28T05:07:02.211Z,17.88
2022-08-28T05:08:03.243Z,17.91
2022-08-28T05:09:02.127Z,17.91
2022-08-28T05:10:02.107Z,17.91
2022-08-28T05:11:02.101Z,17.89
2022-08-28T05:12:02.073Z,17.89
2022-08-28T05:13:02.141Z,17.92
2022-08-28T05:14:02.056Z,17.92
2022-08-28T05:15:02.136Z,17.94
2022-08-28T05:16:02.059Z,17.95
2022-08-28T05:17:01.999Z,17.97
2022-08-28T05:18:02.037Z,17.99
2022-08-28T05:19:03.436Z,18.00
2022-08-28T05:20:01.966Z,17.99
2022-08-28T05:21:01.968Z,17.99
2022-08-28T05:22:01.918Z,18.00
2022-08-28T05:23:01.918Z,17.99
2022-08-28T05:24:01.909Z,17.95
2022-08-28T05:25:01.908Z,17.95
2022-08-28T05:26:01.991Z,17.95
2022-08-28T05:27:01.897Z,17.97
2022-08-28T05:28:01.848Z,18.03
2022-08-28T05:29:01.945Z,18.03
2022-08-28T05:30:03.905Z,18.04
2022-08-28T05:31:01.900Z,18.09
2022-08-28T05:32:01.857Z,18.10
2022-08-28T05:33:01.770Z,18.10
2022-08-28T05:34:01.867Z,18.07
2022-08-28T05:35:01.751Z,18.06
2022-08-28T05:36:01.846Z,18.09
2022-08-28T05:37:01.842Z,18.09
2022-08-28T05:38:01.729Z,18.10
2022-08-28T05:39:01.783Z,18.09
2022-08-28T05:40:01.817Z,18.10
2022-08-28T05:41:02.724Z,18.15
2022-08-28T05:42:02.723Z,18.18
2022-08-28T05:43:01.702Z,18.18
2022-08-28T05:44:01.712Z,18.18
2022-08-28T05:45:01.736Z,18.19
2022-08-28T05:46:01.672Z,18.21
2022-08-28T05:47:01.663Z,18.19
2022-08-28T05:48:01.585Z,18.21
2022-08-28T05:49:01.596Z,18.21
2022-08-28T05:50:01.592Z,18.19
2022-08-28T05:51:01.701Z,18.21
2022-08-28T05:52:01.698Z,18.24
2022-08-28T05:53:01.596Z,18.25
2022-08-28T05:54:01.569Z,18.27
2022-08-28T05:55:01.519Z,18.29
2022-08-28T05:56:01.580Z,18.33
2022-08-28T05:57:01.601Z,18.31
2022-08-28T05:58:01.473Z,18.31
2022-08-28T05:59:01.447Z,18.29
2022-08-28T06:00:01.518Z,18.33
2022-08-28T06:01:01.504Z,18.33
2022-08-28T06:02:04.320Z,18.31
2022-08-28T06:03:01.388Z,18.29
2022-08-28T06:04:01.449Z,18.28
2022-08-28T06:05:02.341Z,18.28
2022-08-28T06:06:01.339Z,18.28
2022-08-28T06:07:01.349Z,18.31
2022-08-28T06:08:01.297Z,18.31
2022-08-28T06:09:02.308Z,18.29
2022-08-28T06:10:02.292Z,18.33
2022-08-28T06:11:01.279Z,18.31
2022-08-28T06:12:01.884Z,18.29
2022-08-28T06:13:01.239Z,18.28
2022-08-28T06:14:01.469Z,18.34
2022-08-28T06:15:01.210Z,18.36
2022-08-28T06:16:01.245Z,18.36
2022-08-28T06:17:01.190Z,18.39
2022-08-28T06:18:01.171Z,18.42
2022-08-28T06:19:01.162Z,18.44
2022-08-28T06:20:01.142Z,18.43
2022-08-28T06:21:01.132Z,18.46
2022-08-28T06:22:01.133Z,18.47
2022-08-28T06:23:02.112Z,18.43
2022-08-28T06:24:01.122Z,18.39
2022-08-28T06:25:01.084Z,18.39
2022-08-28T06:26:01.076Z,18.42
2022-08-28T06:27:01.068Z,18.42
2022-08-28T06:28:01.041Z,18.42
2022-08-28T06:29:01.036Z,18.44
2022-08-28T06:30:01.014Z,18.46
2022-08-28T06:31:18.358Z,18.47
2022-08-28T06:32:02.023Z,18.52
2022-08-28T06:33:00.972Z,18.55
2022-08-28T06:34:00.976Z,18.59
2022-08-28T06:35:00.968Z,18.64
2022-08-28T06:36:00.935Z,18.67
2022-08-28T06:37:00.938Z,18.72
2022-08-28T06:38:00.907Z,18.77
2022-08-28T06:39:00.916Z,18.77
2022-08-28T06:40:00.933Z,18.80
2022-08-28T06:41:00.877Z,18.84
2022-08-28T06:42:01.287Z,18.87
2022-08-28T06:43:00.857Z,18.92
2022-08-28T06:44:00.845Z,18.98
2022-08-28T06:45:00.807Z,18.99
2022-08-28T06:46:01.849Z,18.98
2022-08-28T06:47:00.793Z,19.01
2022-08-28T06:48:00.790Z,19.02
2022-08-28T06:49:00.778Z,19.08
2022-08-28T06:50:00.747Z,19.13
2022-08-28T06:51:01.750Z,19.15
2022-08-28T06:52:00.729Z,19.14
2022-08-28T06:53:00.741Z,19.15
2022-08-28T06:54:00.699Z,19.20
2022-08-28T06:55:01.680Z,19.21
2022-08-28T06:56:00.670Z,19.25
2022-08-28T06:57:00.668Z,19.28
2022-08-28T06:58:00.650Z,19.29
2022-08-28T06:59:00.636Z,19.33
2022-08-28T07:00:00.630Z,19.36
2022-08-28T07:01:02.962Z,19.38
2022-08-28T07:02:00.720Z,19.40
2022-08-28T07:03:00.658Z,19.43
2022-08-28T07:04:00.563Z,19.47
2022-08-28T07:05:00.569Z,19.48
2022-08-28T07:06:00.543Z,19.50
2022-08-28T07:07:00.533Z,19.53
2022-08-28T07:08:00.523Z,19.55
2022-08-28T07:09:00.495Z,19.55
2022-08-28T07:10:00.498Z,19.58
2022-08-28T07:11:00.482Z,19.60
2022-08-28T07:12:00.453Z,19.61
2022-08-28T07:13:00.454Z,19.58
2022-08-28T07:14:00.424Z,19.58
2022-08-28T07:15:00.435Z,19.58
2022-08-28T07:16:00.460Z,19.57
2022-08-28T07:17:00.394Z,19.58
2022-08-28T07:18:00.372Z,19.61
2022-08-28T07:19:00.366Z,19.63
2022-08-28T07:20:00.356Z,19.65
2022-08-28T07:21:00.344Z,19.65
2022-08-28T07:22:00.327Z,19.65
2022-08-28T07:23:00.306Z,19.61
2022-08-28T07:24:00.297Z,19.57
2022-08-28T07:25:00.296Z,19.55
2022-08-28T07:26:00.268Z,19.57
2022-08-28T07:27:01.260Z,19.57
2022-08-28T07:28:00.247Z,19.58
2022-08-28T07:29:10.436Z,19.60
2022-08-28T07:30:02.238Z,19.63
2022-08-28T07:31:00.263Z,19.65
2022-08-28T07:32:00.197Z,19.65
2022-08-28T07:33:00.201Z,19.66
2022-08-28T07:34:00.178Z,19.65
2022-08-28T07:35:00.189Z,19.65
2022-08-28T07:36:00.149Z,19.61
2022-08-28T07:37:00.129Z,19.65
2022-08-28T07:38:00.103Z,19.63
2022-08-28T07:39:00.110Z,19.65
2022-08-28T07:40:00.210Z,19.65
2022-08-28T07:41:00.091Z,19.68
2022-08-28T07:42:00.056Z,19.70
2022-08-28T07:43:00.063Z,19.72
2022-08-28T07:44:00.041Z,19.73
2022-08-28T07:45:00.041Z,19.78
2022-08-28T07:46:00.079Z,19.80
2022-08-28T07:46:59.992Z,19.86
2022-08-28T07:47:59.993Z,19.88
2022-08-28T07:48:59.984Z,19.94
2022-08-28T07:49:59.973Z,20.00
2022-08-28T07:50:59.942Z,20.06
2022-08-28T07:51:59.941Z,20.12
2022-08-28T07:52:59.925Z,20.15
2022-08-28T07:53:59.911Z,20.16
2022-08-28T07:54:59.913Z,20.20
2022-08-28T07:55:59.883Z,20.27
2022-08-28T07:56:59.873Z,20.30
2022-08-28T07:57:59.856Z,20.33
2022-08-28T07:58:59.861Z,20.38
2022-08-28T07:59:59.847Z,20.39
2022-08-28T08:00:59.825Z,20.41
2022-08-28T08:01:59.804Z,20.38
2022-08-28T08:02:59.863Z,20.39
2022-08-28T08:04:01.657Z,20.39
2022-08-28T08:04:59.776Z,20.39
2022-08-28T08:05:59.761Z,20.41
2022-08-28T08:06:59.748Z,20.43
2022-08-28T08:07:59.732Z,20.43
2022-08-28T08:08:59.729Z,20.39
2022-08-28T08:09:59.718Z,20.39
2022-08-28T08:10:59.708Z,20.38
2022-08-28T08:11:59.684Z,20.38
2022-08-28T08:12:59.668Z,20.34
2022-08-28T08:13:59.660Z,20.35
2022-08-28T08:14:59.659Z,20.33
2022-08-28T08:15:59.698Z,20.31
2022-08-28T08:16:59.621Z,20.30
2022-08-28T08:17:59.615Z,20.27
2022-08-28T08:19:00.592Z,20.24
2022-08-28T08:19:59.590Z,20.21
2022-08-28T08:20:59.581Z,20.20
2022-08-28T08:21:59.550Z,20.21
2022-08-28T08:22:59.543Z,20.21
2022-08-28T08:23:59.532Z,20.21
2022-08-28T08:24:59.530Z,20.24
2022-08-28T08:25:59.501Z,20.25
2022-08-28T08:27:00.640Z,20.27
2022-08-28T08:27:59.470Z,20.28
2022-08-28T08:28:59.477Z,20.30
2022-08-28T08:29:59.464Z,20.33
2022-08-28T08:30:59.471Z,20.31
2022-08-28T08:31:59.431Z,20.28
2022-08-28T08:32:59.414Z,20.31
2022-08-28T08:33:59.393Z,20.31
2022-08-28T08:34:59.416Z,20.31
2022-08-28T08:35:59.371Z,20.30
2022-08-28T08:36:59.376Z,20.31
2022-08-28T08:38:02.768Z,20.31
2022-08-28T08:39:00.359Z,20.35
2022-08-28T08:39:59.355Z,20.42
2022-08-28T08:40:59.340Z,20.49
2022-08-28T08:41:59.305Z,20.53
2022-08-28T08:42:59.293Z,20.58
2022-08-28T08:43:59.277Z,20.59
2022-08-28T08:44:59.277Z,20.65
2022-08-28T08:45:59.308Z,20.69
2022-08-28T08:46:59.238Z,20.69
2022-08-28T08:47:59.227Z,20.72
2022-08-28T08:48:59.227Z,20.71
2022-08-28T08:50:00.207Z,20.72
2022-08-28T08:50:59.198Z,20.69
2022-08-28T08:51:59.187Z,20.71
2022-08-28T08:52:59.172Z,20.74
2022-08-28T08:53:59.158Z,20.80
2022-08-28T08:54:59.503Z,20.86
2022-08-28T08:56:00.135Z,20.91
2022-08-28T08:56:59.112Z,21.01
2022-08-28T08:57:59.090Z,21.05
2022-08-28T08:58:59.090Z,21.11
2022-08-28T08:59:59.099Z,21.17
2022-08-28T09:00:59.072Z,21.21
2022-08-28T09:01:59.114Z,21.26
2022-08-28T09:02:59.075Z,21.29
2022-08-28T09:03:59.114Z,21.30
2022-08-28T09:04:59.021Z,21.34
2022-08-28T09:05:59.016Z,21.36
2022-08-28T09:06:58.992Z,21.38
2022-08-28T09:07:58.971Z,21.44
2022-08-28T09:08:58.962Z,21.48
2022-08-28T09:09:58.952Z,21.56
2022-08-28T09:10:58.973Z,21.60
2022-08-28T09:11:58.932Z,21.64
2022-08-28T09:12:58.911Z,21.76
2022-08-28T09:13:58.893Z,21.90
2022-08-28T09:14:58.905Z,22.01
2022-08-28T09:15:58.919Z,22.04
2022-08-28T09:16:59.857Z,22.06
2022-08-28T09:17:58.835Z,22.06
2022-08-28T09:18:58.844Z,21.97
2022-08-28T09:19:58.834Z,21.90
2022-08-28T09:20:59.809Z,21.79
2022-08-28T09:21:59.787Z,21.69
2022-08-28T09:22:58.774Z,21.66
2022-08-28T09:23:58.775Z,21.66
2022-08-28T09:24:58.747Z,21.72
2022-08-28T09:26:01.645Z,21.72
2022-08-28T09:26:58.717Z,21.78
2022-08-28T09:27:58.708Z,21.94
2022-08-28T09:28:58.706Z,22.07
2022-08-28T09:29:58.676Z,22.22
2022-08-28T09:30:58.734Z,22.35
2022-08-28T09:31:59.647Z,22.44
2022-08-28T09:32:58.637Z,22.54
2022-08-28T09:33:58.643Z,22.64
2022-08-28T09:34:58.619Z,22.67
2022-08-28T09:35:58.600Z,22.68
2022-08-28T09:36:59.587Z,22.68
2022-08-28T09:37:58.582Z,22.69
2022-08-28T09:38:58.570Z,22.68
2022-08-28T09:39:58.583Z,22.68
2022-08-28T09:40:58.536Z,22.72
2022-08-28T09:41:58.532Z,22.69
2022-08-28T09:42:58.516Z,22.62
2022-08-28T09:43:58.507Z,22.47
2022-08-28T09:44:59.771Z,22.35
2022-08-28T09:45:59.514Z,22.29
2022-08-28T09:46:58.444Z,22.20
2022-08-28T10:04:16.753Z,22.41
2022-08-28T10:05:16.670Z,22.59
2022-08-28T10:06:16.617Z,22.74
2022-08-28T10:07:16.625Z,22.92
2022-08-28T10:08:17.602Z,23.12
2022-08-28T10:09:16.610Z,23.27
2022-08-28T10:10:17.216Z,23.46
2022-08-28T10:11:16.563Z,23.67
2022-08-28T10:12:16.543Z,23.87
2022-08-28T10:13:17.539Z,24.04
2022-08-28T10:14:16.538Z,24.19
2022-08-28T10:15:16.548Z,24.32
2022-08-28T10:16:16.689Z,24.45
2022-08-28T10:17:24.011Z,24.59
2022-08-28T10:18:16.463Z,24.61
2022-08-28T10:19:16.463Z,24.49
2022-08-28T10:20:16.463Z,24.52
2022-08-28T10:21:16.453Z,24.60
2022-08-28T10:22:16.418Z,24.75
2022-08-28T10:23:17.789Z,24.64
2022-08-28T10:24:16.403Z,24.52
2022-08-28T10:25:17.404Z,24.13
2022-08-28T10:26:16.376Z,23.87
2022-08-28T10:27:16.364Z,23.72
2022-08-28T10:28:16.346Z,23.58
2022-08-28T10:29:16.325Z,23.53
2022-08-28T10:30:16.355Z,23.49
2022-08-28T10:31:16.402Z,23.43
2022-08-28T10:32:16.286Z,23.62
2022-08-28T10:33:16.288Z,23.80
2022-08-28T10:34:16.267Z,24.05
2022-08-28T10:35:16.268Z,24.26
2022-08-28T10:36:27.351Z,24.44
2022-08-28T10:37:17.230Z,24.63
2022-08-28T10:38:16.219Z,24.88
2022-08-28T10:39:16.199Z,25.05
2022-08-28T10:40:16.266Z,25.22
2022-08-28T10:41:16.198Z,25.43
2022-08-28T10:42:16.178Z,25.50
2022-08-28T10:43:16.152Z,25.32
2022-08-28T10:44:16.149Z,24.98
2022-08-28T10:45:16.127Z,24.87
2022-08-28T10:46:16.184Z,24.80
2022-08-28T10:47:16.110Z,24.60
2022-08-28T10:48:16.099Z,24.41
2022-08-28T10:49:16.076Z,24.17
2022-08-28T10:50:16.051Z,23.97
2022-08-28T10:51:16.059Z,23.83
2022-08-28T10:52:16.051Z,23.79
2022-08-28T10:53:16.039Z,24.07
2022-08-28T10:54:17.030Z,24.10
2022-08-28T10:55:16.016Z,24.19
2022-08-28T10:56:15.981Z,24.29
2022-08-28T10:57:15.973Z,24.54
2022-08-28T10:58:24.783Z,24.60
2022-08-28T10:59:16.963Z,24.63
2022-08-28T11:00:15.932Z,24.53
2022-08-28T11:01:15.993Z,24.44
2022-08-28T11:02:15.943Z,24.37
2022-08-28T11:03:33.565Z,24.34
2022-08-28T11:04:23.528Z,24.29
2022-08-28T11:05:16.885Z,24.41
2022-08-28T11:06:15.855Z,24.59
2022-08-28T11:07:15.836Z,24.67
2022-08-28T11:08:15.816Z,24.91
2022-08-28T11:09:15.813Z,25.22
2022-08-28T11:10:15.805Z,25.37
2022-08-28T11:11:15.797Z,25.61
2022-08-28T11:12:15.777Z,26.05
2022-08-28T11:13:15.803Z,26.32
2022-08-28T11:14:15.737Z,26.62
2022-08-28T11:15:15.738Z,26.96
2022-08-28T11:16:15.734Z,27.29
2022-08-28T11:17:15.721Z,27.53
2022-08-28T11:18:15.705Z,27.70
2022-08-28T11:19:15.683Z,27.88
2022-08-28T11:20:15.693Z,27.99
2022-08-28T11:21:15.656Z,28.21
2022-08-28T11:22:15.627Z,28.33
2022-08-28T11:23:15.631Z,28.41
2022-08-28T11:24:15.632Z,28.59
2022-08-28T11:25:15.613Z,28.68
2022-08-28T11:26:15.582Z,28.77
2022-08-28T11:27:16.597Z,28.88
2022-08-28T11:28:15.553Z,28.93
2022-08-28T11:29:15.561Z,28.96
2022-08-28T11:30:15.554Z,29.08
2022-08-28T11:31:28.727Z,28.75
2022-08-28T11:32:16.518Z,28.43
2022-08-28T11:33:15.499Z,28.10
2022-08-28T11:34:15.482Z,27.74
2022-08-28T11:35:15.470Z,27.36
2022-08-28T11:36:15.463Z,27.14
2022-08-28T11:37:15.460Z,27.20
2022-08-28T11:38:18.422Z,27.58
2022-08-28T11:39:15.422Z,27.82
2022-08-28T11:40:15.546Z,27.96
2022-08-28T11:41:15.440Z,27.94
2022-08-28T11:42:15.374Z,27.91
2022-08-28T11:43:16.166Z,27.92
2022-08-28T11:44:15.355Z,28.01
2022-08-28T11:45:15.367Z,28.17
2022-08-28T11:46:15.361Z,28.40
2022-08-28T11:47:15.328Z,28.43
2022-08-28T11:48:15.310Z,28.35
2022-08-28T11:49:15.278Z,28.19
2022-08-28T11:50:15.288Z,28.53
2022-08-28T11:51:16.262Z,28.87
2022-08-28T11:52:15.235Z,28.81
2022-08-28T11:53:15.288Z,28.43
2022-08-28T11:54:15.219Z,28.14
2022-08-28T11:55:16.229Z,27.79
2022-08-28T11:56:28.287Z,27.48
2022-08-28T11:57:16.180Z,27.01
2022-08-28T11:58:45.471Z,26.54
2022-08-28T11:59:45.442Z,26.27
2022-08-28T12:00:45.453Z,26.01
2022-08-28T12:01:45.456Z,25.82
2022-08-28T12:02:45.479Z,25.67
2022-08-28T12:03:45.403Z,25.52
2022-08-28T12:04:45.449Z,25.39
2022-08-28T12:05:45.613Z,25.30
2022-08-28T12:06:45.496Z,25.17
2022-08-28T12:07:45.667Z,25.01
2022-08-28T12:12:04.248Z,24.71
2022-08-28T12:12:43.242Z,24.69
2022-08-28T12:13:50.687Z,24.75
2022-08-28T12:14:45.208Z,24.82
2022-08-28T12:15:43.288Z,24.91
2022-08-28T12:16:43.187Z,24.92
2022-08-28T12:17:43.137Z,24.95
2022-08-28T12:18:43.209Z,25.00
2022-08-28T12:19:55.204Z,25.02
2022-08-28T12:20:44.167Z,25.05
2022-08-28T12:21:43.108Z,25.02
2022-08-28T12:22:43.124Z,25.01
2022-08-28T12:23:43.096Z,25.02
2022-08-28T12:24:43.099Z,25.06
2022-08-28T12:25:46.207Z,25.09
2022-08-28T12:26:43.151Z,25.12
2022-08-28T12:27:44.041Z,25.17
2022-08-28T12:28:43.032Z,25.20
2022-08-28T12:29:43.053Z,25.20
2022-08-28T12:30:44.019Z,25.20
2022-08-28T12:31:45.040Z,25.10
2022-08-28T12:32:42.976Z,25.06
2022-08-28T12:33:42.922Z,25.01
2022-08-28T12:34:42.981Z,24.95
2022-08-28T12:35:43.883Z,24.85
2022-08-28T12:36:43.922Z,24.69
2022-08-28T12:37:52.215Z,24.57
2022-08-28T12:38:44.071Z,24.53
2022-08-28T12:39:42.934Z,24.44
2022-08-28T12:40:42.979Z,24.42
2022-08-28T12:41:42.823Z,24.42
2022-08-28T12:42:42.826Z,24.42
2022-08-28T12:43:46.807Z,24.39
2022-08-28T12:44:42.765Z,24.37
2022-08-28T12:45:42.834Z,24.35
2022-08-28T12:46:42.784Z,24.35
2022-08-28T12:47:42.756Z,24.34
2022-08-28T12:48:42.756Z,24.31
2022-08-28T12:49:42.724Z,24.31
2022-08-28T12:50:42.954Z,24.27
2022-08-28T12:51:43.203Z,24.24
2022-08-28T12:52:43.339Z,24.20
2022-08-28T12:53:42.657Z,24.23
2022-08-28T12:54:42.690Z,24.24
2022-08-28T12:55:42.669Z,24.23
2022-08-28T12:56:42.617Z,24.22
2022-08-28T12:57:42.623Z,24.19
2022-08-28T12:58:42.622Z,24.17
2022-08-28T12:59:42.639Z,24.17
2022-08-28T13:00:42.578Z,24.16
2022-08-28T13:01:42.867Z,24.20
2022-08-28T13:02:46.416Z,24.23
2022-08-28T13:03:43.531Z,24.24
2022-08-28T13:04:42.538Z,24.27
2022-08-28T13:05:42.522Z,24.29
2022-08-28T13:06:42.506Z,24.19
2022-08-28T13:07:43.042Z,24.12
2022-08-28T13:08:42.513Z,24.12
2022-08-28T13:09:42.521Z,24.01
2022-08-28T13:10:43.482Z,23.95
2022-08-28T13:11:42.549Z,23.95
2022-08-28T13:12:54.693Z,24.01
2022-08-28T13:13:43.463Z,24.04
2022-08-28T13:14:42.569Z,24.07
2022-08-28T13:15:42.514Z,24.10
2022-08-28T13:16:42.538Z,24.14
2022-08-28T13:17:42.346Z,24.22
2022-08-28T13:18:42.380Z,24.26
2022-08-28T13:19:42.407Z,24.26
2022-08-28T13:20:42.345Z,24.27
2022-08-28T13:21:42.288Z,24.31
2022-08-28T13:22:50.564Z,24.34
2022-08-28T13:23:45.621Z,24.38
2022-08-28T13:24:42.289Z,24.37
2022-08-28T13:25:42.315Z,24.38
2022-08-28T13:26:42.219Z,24.41
2022-08-28T13:27:42.358Z,24.37